Time;durP1;ratioP1;P1;durP2;ratioP2;P2;SDS_P1;SDS_P2;PMS_P1;PMS_P2;Temp;Humidity;BMP_temperature;BMP_pressure;BME280_temperature;BME280_humidity;BME280_pressure;Samples;Min_cycle;Max_cycle;Signal;HPM_P1;HPM_P2
2021/03/07 00:00:10;;;;;;;10.35;4.70;;;;;;;0.26;43.80;101967.69;1736247;81;21127;-64
2021/03/07 00:02:38;;;;;;;7.92;4.50;;;;;;;0.23;43.91;101964.92;1741358;82;21136;-52
2021/03/07 00:05:07;;;;;;;13.13;5.58;;;;;;;0.22;44.04;101959.26;1722430;81;21194;-64
2021/03/07 00:07:35;;;;;;;9.18;4.10;;;;;;;0.20;43.99;101964.78;1724519;82;21606;-64
2021/03/07 00:10:07;;;;;;;10.35;4.30;;;;;;;0.16;44.02;101958.95;1748009;81;21297;-52
2021/03/07 00:12:35;;;;;;;9.60;3.72;;;;;;;0.15;44.10;101958.45;1748359;81;21148;-63
2021/03/07 00:15:05;;;;;;;9.05;4.60;;;;;;;0.10;44.11;101949.53;1748033;81;21333;-64
2021/03/07 00:17:33;;;;;;;8.75;4.00;;;;;;;0.07;44.15;101947.65;1747588;82;21160;-64
2021/03/07 00:20:01;;;;;;;9.40;4.65;;;;;;;0.02;44.27;101946.91;1747107;82;21202;-52
2021/03/07 00:22:29;;;;;;;10.18;4.30;;;;;;;-0.02;44.27;101939.39;1748067;82;21135;-52
2021/03/07 00:24:56;;;;;;;10.13;4.55;;;;;;;-0.06;44.41;101939.60;1748112;82;21184;-64
2021/03/07 00:27:24;;;;;;;13.32;5.47;;;;;;;-0.10;44.57;101937.64;1746672;82;21128;-52
2021/03/07 00:29:51;;;;;;;12.65;5.47;;;;;;;-0.12;44.70;101937.08;1747940;81;21171;-64
2021/03/07 00:32:19;;;;;;;10.32;4.85;;;;;;;-0.15;44.85;101939.08;1747217;82;21150;-52
2021/03/07 00:34:48;;;;;;;7.72;4.05;;;;;;;-0.18;45.06;101935.93;1748527;81;21175;-65
2021/03/07 00:37:16;;;;;;;10.38;5.20;;;;;;;-0.25;45.28;101932.91;1746999;81;21175;-53
2021/03/07 00:39:45;;;;;;;8.53;4.33;;;;;;;-0.28;45.40;101931.03;1747991;82;21210;-52
2021/03/07 00:42:12;;;;;;;9.78;4.83;;;;;;;-0.28;45.61;101937.91;1724063;82;21111;-53
2021/03/07 00:44:40;;;;;;;10.88;4.83;;;;;;;-0.30;45.72;101942.98;1682214;85;21190;-53
2021/03/07 00:47:07;;;;;;;9.20;4.92;;;;;;;-0.32;45.70;101939.03;1719837;82;21265;-53
2021/03/07 00:49:35;;;;;;;10.70;5.00;;;;;;;-0.35;45.72;101935.36;1718846;83;21175;-53
2021/03/07 00:52:04;;;;;;;11.20;4.90;;;;;;;-0.39;45.81;101932.09;1740670;82;21627;-64
2021/03/07 00:54:32;;;;;;;8.80;4.35;;;;;;;-0.39;45.88;101926.54;1748298;82;21175;-52
2021/03/07 00:57:00;;;;;;;8.33;3.92;;;;;;;-0.42;45.90;101929.33;1747131;82;21578;-53
2021/03/07 00:59:28;;;;;;;12.82;5.28;;;;;;;-0.49;46.08;101929.01;1746950;81;21139;-64
2021/03/07 01:01:55;;;;;;;8.60;4.28;;;;;;;-0.51;46.13;101928.41;1716782;83;21208;-64
2021/03/07 01:04:23;;;;;;;10.43;4.90;;;;;;;-0.51;46.27;101927.11;1717070;83;21183;-64
2021/03/07 01:06:51;;;;;;;7.10;4.00;;;;;;;-0.47;46.34;101922.61;1743588;82;21127;-64
2021/03/07 01:09:19;;;;;;;9.53;4.58;;;;;;;-0.49;46.48;101924.22;1736014;82;21159;-64
2021/03/07 01:11:48;;;;;;;9.85;4.83;;;;;;;-0.50;46.61;101922.44;1709744;84;21182;-64
2021/03/07 01:14:15;;;;;;;8.83;4.37;;;;;;;-0.55;46.66;101915.72;1712513;84;21289;-53
2021/03/07 01:16:44;;;;;;;10.75;4.83;;;;;;;-0.57;46.70;101914.73;1735342;82;21150;-52
2021/03/07 01:19:12;;;;;;;9.03;4.45;;;;;;;-0.57;46.72;101915.12;1728537;82;21182;-64
2021/03/07 01:21:41;;;;;;;9.00;4.00;;;;;;;-0.61;46.80;101914.06;1718892;83;21175;-52
2021/03/07 01:24:09;;;;;;;10.23;4.87;;;;;;;-0.62;46.85;101915.73;1721688;82;21171;-65
2021/03/07 01:26:37;;;;;;;10.25;4.17;;;;;;;-0.62;46.87;101910.98;1748156;82;21200;-52
2021/03/07 01:29:05;;;;;;;11.73;6.03;;;;;;;-0.64;46.92;101909.58;1716317;81;21170;-53
2021/03/07 01:31:32;;;;;;;8.78;4.33;;;;;;;-0.67;46.98;101910.73;1725900;83;21166;-53
2021/03/07 01:34:00;;;;;;;12.20;5.53;;;;;;;-0.66;47.13;101909.02;1725820;83;21126;-53
2021/03/07 01:36:27;;;;;;;8.88;4.30;;;;;;;-0.66;47.27;101906.44;1733100;81;21178;-65
2021/03/07 01:38:56;;;;;;;8.53;4.03;;;;;;;-0.66;47.44;101899.97;1675459;84;21210;-64
2021/03/07 01:41:27;;;;;;;8.60;4.45;;;;;;;-0.62;47.61;101904.52;1696470;84;21199;-52
2021/03/07 01:43:54;;;;;;;8.78;4.35;;;;;;;-0.65;47.81;101902.62;1679208;85;21156;-52
2021/03/07 01:46:22;;;;;;;8.63;4.45;;;;;;;-0.65;47.94;101901.33;1669521;84;21162;-64
2021/03/07 01:48:49;;;;;;;6.70;3.40;;;;;;;-0.64;47.98;101900.95;1673977;86;21219;-65
2021/03/07 01:51:17;;;;;;;8.60;4.67;;;;;;;-0.62;48.18;101895.47;1647621;86;21203;-65
2021/03/07 01:53:45;;;;;;;10.00;5.05;;;;;;;-0.61;48.20;101893.38;1650971;84;21154;-64
2021/03/07 01:56:13;;;;;;;10.13;5.08;;;;;;;-0.61;48.38;101886.48;1712017;84;21175;-52
2021/03/07 01:58:41;;;;;;;13.28;5.60;;;;;;;-0.59;48.63;101887.88;1713831;83;21115;-64
2021/03/07 02:01:09;;;;;;;11.57;5.80;;;;;;;-0.52;48.63;101886.15;1687957;84;21192;-65
2021/03/07 02:03:51;;;;;;;9.03;4.22;;;;;;;-0.48;48.77;101890.70;1684164;84;21154;-65
2021/03/07 02:06:20;;;;;;;7.55;4.35;;;;;;;-0.39;49.01;101877.77;1687671;84;21633;-64
2021/03/07 02:08:49;;;;;;;10.08;5.62;;;;;;;-0.34;49.16;101878.92;1686226;85;21192;-65
2021/03/07 02:11:17;;;;;;;14.38;6.30;;;;;;;-0.31;49.27;101874.83;1686256;85;21147;-52
2021/03/07 02:13:44;;;;;;;10.10;6.00;;;;;;;-0.28;49.19;101872.80;1647067;86;21158;-52
2021/03/07 02:16:18;;;;;;;9.85;5.30;;;;;;;-0.25;49.39;101874.69;1654374;85;21180;-64
2021/03/07 02:18:49;;;;;;;9.33;4.55;;;;;;;-0.23;49.47;101876.55;1667203;86;21201;-54
2021/03/07 02:21:28;;;;;;;8.18;4.17;;;;;;;-0.23;49.47;101878.25;1667710;86;21181;-52
2021/03/07 02:24:08;;;;;;;9.73;5.00;;;;;;;-0.26;49.42;101872.91;1667118;84;21297;-53
2021/03/07 02:26:39;;;;;;;8.55;4.80;;;;;;;-0.27;49.36;101870.70;1696565;84;21169;-64
2021/03/07 02:29:08;;;;;;;11.22;6.45;;;;;;;-0.28;49.37;101871.51;1677671;85;21581;-52
2021/03/07 02:31:44;;;;;;;9.33;4.92;;;;;;;-0.31;49.24;101870.95;1686022;83;21167;-52
2021/03/07 02:34:34;;;;;;;13.10;4.47;;;;;;;-0.35;49.18;101870.67;1720752;83;21130;-64
2021/03/07 02:37:08;;;;;;;7.78;4.20;;;;;;;-0.42;49.04;101869.83;1693298;85;21308;-51
2021/03/07 02:39:40;;;;;;;10.40;4.80;;;;;;;-0.55;49.01;101866.57;1694934;85;21150;-64
2021/03/07 02:42:15;;;;;;;10.08;4.65;;;;;;;-0.64;49.15;101868.20;1668721;85;21308;-64
2021/03/07 02:44:49;;;;;;;10.88;5.00;;;;;;;-0.68;49.22;101866.28;1687139;85;21609;-51
2021/03/07 02:47:16;;;;;;;8.30;4.65;;;;;;;-0.71;49.37;101867.39;1691984;85;21158;-65
2021/03/07 02:49:45;;;;;;;8.73;5.03;;;;;;;-0.78;49.56;101864.83;1666002;85;21338;-64
2021/03/07 02:52:12;;;;;;;10.15;5.45;;;;;;;-0.79;49.61;101864.34;1712646;83;21146;-64
2021/03/07 02:54:41;;;;;;;7.63;4.87;;;;;;;-0.80;49.69;101860.39;1693458;85;21175;-64
2021/03/07 02:57:09;;;;;;;9.53;4.45;;;;;;;-0.81;49.78;101860.77;1694889;85;21158;-52
2021/03/07 02:59:37;;;;;;;9.58;4.90;;;;;;;-0.82;49.76;101861.57;1694747;85;21173;-64
2021/03/07 03:02:05;;;;;;;8.33;3.85;;;;;;;-0.82;49.77;101859.41;1719487;83;21158;-64
2021/03/07 03:04:34;;;;;;;10.98;5.95;;;;;;;-0.86;49.74;101857.44;1693162;85;21214;-53
2021/03/07 03:07:02;;;;;;;9.50;4.90;;;;;;;-0.95;49.66;101862.97;1693008;84;21170;-58
2021/03/07 03:09:32;;;;;;;11.53;6.30;;;;;;;-1.03;49.81;101858.62;1669856;85;21158;-52
2021/03/07 03:11:59;;;;;;;10.13;5.87;;;;;;;-1.06;50.03;101862.31;1693660;85;21319;-51
2021/03/07 03:14:26;;;;;;;13.60;6.50;;;;;;;-1.03;50.20;101865.09;1693150;85;21312;-51
2021/03/07 03:16:57;;;;;;;12.50;5.62;;;;;;;-1.00;50.33;101865.27;1684646;85;21127;-64
2021/03/07 03:19:25;;;;;;;;;;;;;;;-0.97;50.58;101860.28;1667657;85;21399;-52
2021/03/07 03:21:54;;;;;;;10.10;5.35;;;;;;;-0.96;50.67;101865.94;1684378;84;20236;-51
2021/03/07 03:24:22;;;;;;;13.35;5.80;;;;;;;-0.99;50.96;101866.18;1679831;85;21177;-64
2021/03/07 03:26:49;;;;;;;11.75;6.33;;;;;;;-1.04;50.88;101863.30;1682981;83;21205;-51
2021/03/07 03:29:17;;;;;;;13.65;6.15;;;;;;;-1.04;51.01;101868.47;1693421;83;21136;-64
2021/03/07 03:31:45;;;;;;;10.48;6.22;;;;;;;-0.99;51.10;101863.59;1756145;82;21179;-64
2021/03/07 03:34:12;;;;;;;11.60;5.97;;;;;;;-0.93;51.09;101866.55;1756249;82;21170;-51
2021/03/07 03:36:40;;;;;;;13.28;6.12;;;;;;;-0.96;51.42;101858.61;1726281;81;21205;-64
2021/03/07 03:39:14;;;;;;;11.93;5.78;;;;;;;-0.94;51.34;101857.88;1689433;85;21130;-64
2021/03/07 03:41:42;;;;;;;13.58;7.08;;;;;;;-0.97;51.54;101847.77;1756060;81;21180;-61
2021/03/07 03:44:11;;;;;;;13.53;6.30;;;;;;;-0.99;51.53;101847.67;1705195;83;21159;-52
2021/03/07 03:46:41;;;;;;;16.67;8.83;;;;;;;-0.99;51.44;101846.38;1706663;83;21597;-51
2021/03/07 03:49:16;;;;;;;12.20;6.97;;;;;;;-0.97;51.59;101851.66;1690231;85;21206;-51
2021/03/07 03:51:48;;;;;;;11.68;6.30;;;;;;;-0.92;51.66;101834.72;1806942;77;22190;-49
2021/03/07 03:54:16;;;;;;;16.02;6.67;;;;;;;-0.93;51.61;101843.28;1741703;81;21142;-48
2021/03/07 03:56:44;;;;;;;17.32;7.75;;;;;;;-0.95;51.56;101834.13;1731616;81;21204;-62
2021/03/07 03:59:11;;;;;;;14.95;7.97;;;;;;;-0.93;51.53;101832.52;1757211;81;21573;-62
2021/03/07 04:01:39;;;;;;;11.97;7.20;;;;;;;-0.96;51.59;101830.17;1762171;81;21143;-65
2021/03/07 04:04:08;;;;;;;13.93;7.93;;;;;;;-1.00;51.70;101828.20;1742750;81;21122;-52
2021/03/07 04:06:37;;;;;;;13.00;7.22;;;;;;;-1.01;51.70;101821.26;1761129;80;21164;-65
2021/03/07 04:09:05;;;;;;;12.85;7.50;;;;;;;-1.00;51.81;101817.45;1761815;81;21156;-52
2021/03/07 04:11:33;;;;;;;14.38;7.97;;;;;;;-0.97;51.89;101809.00;1761169;81;21142;-65
2021/03/07 04:14:02;;;;;;;13.50;7.87;;;;;;;-0.97;51.90;101804.70;1759240;81;21700;-65
2021/03/07 04:16:30;;;;;;;15.55;7.92;;;;;;;-0.98;51.95;101805.93;1761037;80;21249;-51
2021/03/07 04:18:58;;;;;;;18.77;8.65;;;;;;;-0.98;51.86;101796.46;1761910;81;21151;-52
2021/03/07 04:21:26;;;;;;;13.32;7.00;;;;;;;-0.96;51.95;101806.91;1761109;81;21160;-65
2021/03/07 04:23:54;;;;;;;14.35;8.45;;;;;;;-0.99;52.12;101795.10;1761912;81;21178;-65
2021/03/07 04:26:21;;;;;;;14.28;6.97;;;;;;;-0.99;52.06;101794.68;1761088;81;21182;-52
2021/03/07 04:28:50;;;;;;;14.68;7.97;;;;;;;-0.94;52.02;101802.30;1700241;83;21142;-52
2021/03/07 04:31:17;;;;;;;11.43;6.53;;;;;;;-0.89;51.99;101796.13;1711499;83;21142;-65
2021/03/07 04:33:45;;;;;;;14.85;7.55;;;;;;;-0.86;52.05;101796.27;1725681;83;21159;-64
2021/03/07 04:36:13;;;;;;;15.53;7.95;;;;;;;-0.90;52.00;101793.05;1698391;83;21158;-65
2021/03/07 04:38:40;;;;;;;14.15;7.83;;;;;;;-0.98;52.09;101789.13;1714560;83;21146;-65
2021/03/07 04:41:08;;;;;;;14.07;8.35;;;;;;;-1.04;52.28;101792.23;1691986;83;21143;-53
2021/03/07 04:43:50;;;;;;;13.25;7.08;;;;;;;-1.04;52.27;101794.81;1719898;83;21155;-52
2021/03/07 04:46:21;;;;;;;12.30;6.50;;;;;;;-1.01;52.34;101797.58;1719803;82;21278;-52
2021/03/07 04:48:49;;;;;;;22.52;9.83;;;;;;;-0.99;52.47;101792.52;1719783;83;21142;-65
2021/03/07 04:51:17;;;;;;;15.08;7.70;;;;;;;-0.96;52.58;101800.45;1710083;83;21187;-66
2021/03/07 04:53:44;;;;;;;14.87;8.08;;;;;;;-0.90;52.69;101791.76;1747908;82;21135;-65
2021/03/07 04:56:12;;;;;;;14.65;8.40;;;;;;;-0.87;52.68;101793.19;1748692;82;21627;-52
2021/03/07 04:58:40;;;;;;;14.25;8.30;;;;;;;-0.84;52.85;101800.25;1748114;82;21135;-65
2021/03/07 05:01:07;;;;;;;14.65;7.25;;;;;;;-0.81;53.01;101802.59;1748553;81;21135;-55
2021/03/07 05:03:35;;;;;;;15.00;6.92;;;;;;;-0.71;53.09;101802.74;1747494;82;21131;-66
2021/03/07 05:06:04;;;;;;;14.55;7.50;;;;;;;-0.60;53.12;101802.92;1747485;81;21184;-64
2021/03/07 05:08:32;;;;;;;14.47;7.95;;;;;;;-0.50;53.24;101803.44;1748385;82;21175;-54
2021/03/07 05:11:01;;;;;;;18.73;8.63;;;;;;;-0.45;53.40;101800.71;1748354;81;21167;-65
2021/03/07 05:13:28;;;;;;;15.10;7.12;;;;;;;-0.35;53.17;101800.42;1747700;82;21135;-66
2021/03/07 05:15:56;;;;;;;13.72;7.78;;;;;;;-0.25;53.15;101797.05;1747487;81;21155;-66
2021/03/07 05:18:25;;;;;;;17.92;9.60;;;;;;;-0.19;53.21;101793.09;1748434;82;21159;-66
2021/03/07 05:20:52;;;;;;;14.85;9.38;;;;;;;-0.11;53.24;101801.27;1748381;81;21159;-54
2021/03/07 05:23:20;;;;;;;19.87;8.58;;;;;;;-0.08;53.44;101803.15;1747814;82;21143;-66
2021/03/07 05:25:47;;;;;;;16.90;9.50;;;;;;;0.01;53.52;101807.50;1747724;81;21180;-66
2021/03/07 05:28:15;;;;;;;11.43;7.00;;;;;;;0.12;53.59;101805.51;1748248;82;21115;-67
2021/03/07 05:30:43;;;;;;;17.77;9.45;;;;;;;0.24;53.51;101802.67;1740993;81;21135;-54
2021/03/07 05:33:11;;;;;;;14.35;7.85;;;;;;;0.34;53.58;101801.45;1740928;82;21147;-66
2021/03/07 05:35:41;;;;;;;14.60;8.08;;;;;;;0.46;53.55;101803.39;1748212;81;21177;-66
2021/03/07 05:38:10;;;;;;;15.75;7.72;;;;;;;0.58;53.52;101805.33;1748095;82;21180;-55
2021/03/07 05:40:37;;;;;;;12.95;7.70;;;;;;;0.68;53.57;101803.19;1741025;82;21181;-67
2021/03/07 05:43:05;;;;;;;13.35;7.87;;;;;;;0.79;53.63;101802.46;1737717;82;21154;-55
2021/03/07 05:45:33;;;;;;;16.57;8.50;;;;;;;0.91;53.62;101793.98;1743932;82;21163;-67
2021/03/07 05:48:01;;;;;;;18.55;9.28;;;;;;;1.04;53.65;101798.09;1698450;83;21151;-55
2021/03/07 05:50:28;;;;;;;15.70;8.40;;;;;;;1.18;53.64;101792.29;1745450;81;21605;-55
2021/03/07 05:52:57;;;;;;;10.68;6.83;;;;;;;1.32;53.75;101790.36;1752197;82;21131;-66
2021/03/07 05:55:26;;;;;;;12.98;7.80;;;;;;;1.46;53.84;101792.31;1756066;82;21173;-54
2021/03/07 05:57:58;;;;;;;11.97;7.20;;;;;;;1.63;53.59;101787.52;1748618;82;21163;-67
2021/03/07 06:00:26;;;;;;;12.65;7.47;;;;;;;1.79;53.42;101785.63;1727580;82;21686;-64
2021/03/07 06:02:54;;;;;;;10.60;6.90;;;;;;;1.98;53.31;101784.80;1740829;82;21134;-55
2021/03/07 06:05:23;;;;;;;15.88;8.60;;;;;;;2.13;53.10;101791.48;1728068;82;21167;-66
2021/03/07 06:07:50;;;;;;;12.47;7.28;;;;;;;2.29;52.85;101786.16;1734509;82;21122;-56
2021/03/07 06:10:27;;;;;;;11.63;7.03;;;;;;;2.44;52.55;101791.53;1749517;82;21119;-56
2021/03/07 06:13:05;;;;;;;12.68;8.08;;;;;;;2.57;52.08;101791.25;1743231;82;21139;-55
2021/03/07 06:15:34;;;;;;;12.95;7.33;;;;;;;2.63;51.56;101778.52;1727103;82;21631;-56
2021/03/07 06:18:17;;;;;;;14.23;9.00;;;;;;;2.73;51.13;101773.72;1746436;82;21143;-57
2021/03/07 06:20:48;;;;;;;16.02;9.00;;;;;;;2.86;50.96;101778.63;1695856;84;21202;-66
2021/03/07 06:23:15;;;;;;;11.93;7.33;;;;;;;3.04;50.93;101767.19;1720535;83;21167;-65
2021/03/07 06:25:49;;;;;;;15.95;9.03;;;;;;;3.21;50.89;101766.16;1692743;83;21162;-55
2021/03/07 06:28:23;;;;;;;16.15;8.43;;;;;;;3.34;50.67;101762.73;1730241;82;21122;-55
2021/03/07 06:30:51;;;;;;;12.00;7.35;;;;;;;3.50;50.19;101761.22;1756022;81;21147;-66
2021/03/07 06:33:37;;;;;;;13.55;7.58;;;;;;;3.65;49.44;101754.84;1756092;81;21170;-56
2021/03/07 06:36:22;;;;;;;12.98;7.33;;;;;;;3.68;48.35;101748.02;1752905;82;21168;-54
2021/03/07 06:38:52;;;;;;;13.13;8.45;;;;;;;3.82;48.13;101752.87;1726326;82;21147;-54
2021/03/07 06:41:23;;;;;;;17.73;8.33;;;;;;;3.93;47.85;101755.87;1754317;82;21574;-54
2021/03/07 06:43:50;;;;;;;11.00;6.58;;;;;;;4.10;48.01;101748.27;1755266;81;21678;-65
2021/03/07 06:46:35;;;;;;;12.18;7.42;;;;;;;4.14;47.04;101745.34;1754102;80;21134;-66
2021/03/07 06:49:04;;;;;;;12.63;7.53;;;;;;;4.19;46.89;101748.13;1751895;81;21120;-55
2021/03/07 06:51:35;;;;;;;12.03;6.78;;;;;;;4.35;46.52;101749.13;1758755;80;21162;-55
2021/03/07 06:54:20;;;;;;;11.30;7.67;;;;;;;4.44;46.03;101740.73;1760797;81;21143;-55
2021/03/07 06:56:50;;;;;;;10.25;6.80;;;;;;;4.60;46.35;101739.13;1760204;81;21208;-66
2021/03/07 06:59:23;;;;;;;12.30;6.53;;;;;;;4.58;45.17;101738.20;1760661;81;21126;-55
2021/03/07 07:01:53;;;;;;;10.40;5.78;;;;;;;4.84;45.17;101734.30;1759783;81;21551;-55
2021/03/07 07:04:23;;;;;;;10.08;5.75;;;;;;;4.96;44.19;101733.80;1760331;81;21256;-65
2021/03/07 07:07:08;;;;;;;11.60;5.95;;;;;;;5.06;43.67;101726.74;1759054;80;21257;-55
2021/03/07 07:09:38;;;;;;;11.43;5.80;;;;;;;5.04;42.71;101719.69;1732761;81;21139;-66
2021/03/07 07:12:20;;;;;;;11.65;6.28;;;;;;;5.15;42.63;101716.10;1730376;81;21170;-66
2021/03/07 07:14:48;;;;;;;9.55;5.78;;;;;;;5.25;42.71;101731.66;1752646;81;21144;-65
2021/03/07 07:17:19;;;;;;;10.25;6.37;;;;;;;5.35;42.05;101718.93;1739904;81;21285;-55
2021/03/07 07:19:48;;;;;;;11.22;5.53;;;;;;;5.54;42.23;101718.16;1761407;80;21127;-65
2021/03/07 07:22:16;;;;;;;11.45;6.45;;;;;;;5.61;41.53;101716.64;1760681;81;21135;-66
2021/03/07 07:24:44;;;;;;;9.28;4.83;;;;;;;5.63;41.30;101704.52;1759456;81;21163;-55
2021/03/07 07:27:12;;;;;;;9.18;4.97;;;;;;;5.63;39.82;101700.59;1729882;83;21179;-65
2021/03/07 07:29:40;;;;;;;10.98;5.90;;;;;;;5.70;39.46;101689.48;1756168;81;21248;-55
2021/03/07 07:32:45;;;;;;;7.87;4.97;;;;;;;5.84;40.29;101695.50;1736127;81;21170;-65
2021/03/07 07:35:22;;;;;;;9.55;5.58;;;;;;;5.92;39.53;101684.45;1754421;81;21159;-55
2021/03/07 07:37:55;;;;;;;7.87;5.15;;;;;;;6.02;39.26;101687.33;1761404;81;21209;-66
2021/03/07 07:40:44;;;;;;;7.65;4.58;;;;;;;6.07;38.83;101690.55;1751837;81;21168;-65
2021/03/07 07:43:12;;;;;;;9.33;5.00;;;;;;;6.17;38.25;101686.45;1761712;81;21166;-55
2021/03/07 07:45:40;;;;;;;8.58;5.20;;;;;;;6.19;37.80;101676.91;1743916;81;21139;-65
2021/03/07 07:48:09;;;;;;;7.87;4.45;;;;;;;6.24;37.15;101679.64;1760437;81;21546;-66
2021/03/07 07:50:39;;;;;;;11.22;5.10;;;;;;;6.41;37.69;101661.77;1761170;80;21339;-56
2021/03/07 07:53:18;;;;;;;9.10;4.40;;;;;;;6.37;37.06;101663.44;1743709;81;21111;-65
2021/03/07 07:55:51;;;;;;;8.17;4.60;;;;;;;6.54;36.75;101657.75;1749819;80;21170;-55
2021/03/07 07:58:42;;;;;;;8.88;5.05;;;;;;;6.57;36.78;101651.30;1755998;81;21123;-55
2021/03/07 08:01:12;;;;;;;7.33;4.62;;;;;;;6.76;37.07;101639.95;1761348;80;21159;-56
2021/03/07 08:03:45;;;;;;;8.23;5.12;;;;;;;6.95;36.50;101636.02;1760645;81;21127;-65
2021/03/07 08:06:16;;;;;;;8.48;5.03;;;;;;;7.03;36.54;101625.30;1730043;81;21190;-66
2021/03/07 08:08:44;;;;;;;8.18;4.95;;;;;;;7.18;35.58;101622.14;1727355;83;21151;-65
2021/03/07 08:11:26;;;;;;;7.10;4.25;;;;;;;7.36;35.81;101618.16;1759632;80;21159;-55
2021/03/07 08:13:56;;;;;;;7.53;4.75;;;;;;;7.50;34.51;101618.02;1760898;81;21087;-64
2021/03/07 08:16:39;;;;;;;10.50;5.25;;;;;;;7.74;35.01;101616.28;1761578;81;21139;-64
2021/03/07 08:19:10;;;;;;;6.78;3.95;;;;;;;7.88;34.66;101610.42;1724435;83;21114;-54
2021/03/07 08:22:05;;;;;;;7.83;3.95;;;;;;;7.96;33.47;101604.00;1707427;83;21578;-54
2021/03/07 08:24:52;;;;;;;11.50;5.33;;;;;;;8.04;33.53;101598.06;1685513;84;21502;-54
2021/03/07 08:27:36;;;;;;;8.63;5.12;;;;;;;8.24;33.50;101596.20;1670354;85;21319;-53
2021/03/07 08:30:08;;;;;;;14.85;7.40;;;;;;;8.39;33.10;101597.32;1677298;85;21194;-54
2021/03/07 08:32:46;;;;;;;7.28;4.22;;;;;;;8.56;32.83;101593.68;1693925;84;21150;-55
2021/03/07 08:35:24;;;;;;;7.47;3.90;;;;;;;8.54;32.12;101591.46;1704896;84;21184;-67
2021/03/07 08:38:15;;;;;;;8.63;5.08;;;;;;;8.35;32.11;101584.59;1692441;85;21632;-55
2021/03/07 08:40:57;;;;;;;6.45;4.10;;;;;;;8.28;31.89;101581.41;1725239;83;21136;-54
2021/03/07 08:43:31;;;;;;;9.48;5.05;;;;;;;8.45;31.75;101573.81;1706028;84;21261;-64
2021/03/07 08:46:11;;;;;;;8.00;4.20;;;;;;;8.68;32.12;101572.87;1707507;83;21195;-65
2021/03/07 08:48:40;;;;;;;;;;;;;;;8.84;31.84;101575.29;1704614;84;21279;-55
2021/03/07 08:51:10;;;;;;;5.00;2.83;;;;;;;8.88;30.47;101560.45;1694576;85;20153;-64
2021/03/07 08:53:39;;;;;;;5.25;3.05;;;;;;;8.77;30.12;101561.20;1654466;84;21138;-65
2021/03/07 08:56:07;;;;;;;6.60;3.50;;;;;;;8.89;29.74;101551.30;1717154;83;21162;-55
2021/03/07 08:58:37;;;;;;;7.03;3.52;;;;;;;8.72;29.37;101555.42;1732086;82;21248;-55
2021/03/07 09:01:06;;;;;;;4.67;2.67;;;;;;;8.75;29.05;101544.96;1740398;82;21150;-64
2021/03/07 09:03:34;;;;;;;4.75;2.80;;;;;;;8.74;28.43;101549.34;1716685;83;21158;-65
2021/03/07 09:06:13;;;;;;;6.05;2.80;;;;;;;8.80;29.06;101534.55;1716622;83;21146;-56
2021/03/07 09:08:42;;;;;;;;;;;;;;;8.86;29.19;101524.09;1730661;82;21142;-55
2021/03/07 09:11:10;;;;;;;6.37;3.10;;;;;;;9.00;28.91;101530.87;1730358;82;20432;-64
2021/03/07 09:13:49;;;;;;;5.03;2.65;;;;;;;9.11;29.47;101523.98;1748673;82;21284;-64
2021/03/07 09:16:17;;;;;;;5.65;3.17;;;;;;;9.16;29.16;101516.17;1740084;82;21573;-63
2021/03/07 09:18:46;;;;;;;7.08;3.90;;;;;;;9.23;29.25;101524.58;1743774;82;21260;-55
2021/03/07 09:21:15;;;;;;;4.97;2.65;;;;;;;9.37;29.18;101516.85;1715741;83;21700;-56
2021/03/07 09:23:49;;;;;;;5.95;3.30;;;;;;;9.53;29.07;101511.32;1686766;85;21309;-56
2021/03/07 09:26:21;;;;;;;6.05;3.80;;;;;;;9.52;28.69;101497.28;1701322;84;21173;-55
2021/03/07 09:28:53;;;;;;;6.50;3.35;;;;;;;9.25;28.78;101497.90;1721700;82;21162;-55
2021/03/07 09:31:23;;;;;;;6.33;3.50;;;;;;;9.06;28.86;101496.36;1716543;83;21304;-62
2021/03/07 09:33:54;;;;;;;6.15;3.40;;;;;;;8.95;29.35;101491.41;1719145;82;21135;-63
2021/03/07 09:36:24;;;;;;;4.97;2.95;;;;;;;8.97;28.79;101498.88;1746383;82;21600;-64
2021/03/07 09:38:59;;;;;;;4.28;2.50;;;;;;;8.94;29.04;101500.14;1719355;82;21167;-55
2021/03/07 09:41:40;;;;;;;6.90;3.37;;;;;;;8.85;28.55;101493.04;1716791;83;21696;-57
2021/03/07 09:44:15;;;;;;;6.65;3.00;;;;;;;8.03;30.04;101495.76;1733989;82;21106;-62
2021/03/07 09:46:44;;;;;;;6.42;3.70;;;;;;;8.58;29.82;101503.63;1735276;82;21148;-55
2021/03/07 09:49:16;;;;;;;7.22;3.65;;;;;;;8.99;29.54;101478.77;1727281;82;21159;-55
2021/03/07 09:51:44;;;;;;;5.67;3.22;;;;;;;9.18;28.70;101482.48;1728680;82;21184;-55
2021/03/07 09:54:14;;;;;;;6.33;2.92;;;;;;;9.07;28.74;101474.91;1732531;81;21804;-54
2021/03/07 09:56:42;;;;;;;6.90;3.58;;;;;;;9.02;28.78;101486.68;1756078;81;21183;-55
2021/03/07 09:59:19;;;;;;;6.62;3.45;;;;;;;8.85;28.86;101480.33;1751436;81;21143;-54
2021/03/07 10:01:59;;;;;;;5.40;3.72;;;;;;;8.83;29.49;101476.83;1759260;81;21566;-62
2021/03/07 10:04:44;;;;;;;6.15;3.45;;;;;;;9.00;29.85;101461.28;1761819;81;21280;-63
2021/03/07 10:07:20;;;;;;;5.42;3.42;;;;;;;9.34;29.47;101456.38;1760970;81;21138;-55
2021/03/07 10:10:07;;;;;;;5.58;3.40;;;;;;;9.73;29.36;101447.52;1761485;81;21135;-63
2021/03/07 10:12:55;;;;;;;7.75;3.95;;;;;;;10.05;28.35;101433.76;1723997;83;21324;-56
2021/03/07 10:15:31;;;;;;;5.55;3.40;;;;;;;10.19;28.29;101443.91;1706995;84;21494;-64
2021/03/07 10:18:08;;;;;;;6.75;3.70;;;;;;;10.29;28.05;101447.92;1694506;84;21186;-56
2021/03/07 10:20:38;;;;;;;5.37;3.12;;;;;;;10.02;27.78;101431.97;1707246;83;21582;-59
2021/03/07 10:23:06;;;;;;;5.87;3.45;;;;;;;10.24;27.78;101418.97;1707526;84;21642;-55
2021/03/07 10:25:38;;;;;;;153.82;59.70;;;;;;;10.23;27.66;101408.86;1699833;83;21167;-63
2021/03/07 10:28:21;;;;;;;28.80;12.65;;;;;;;10.37;27.26;101393.59;1717563;83;21182;-55
2021/03/07 10:30:50;;;;;;;5.03;3.10;;;;;;;10.62;27.58;101393.30;1719366;82;21212;-63
2021/03/07 10:33:26;;;;;;;7.87;4.07;;;;;;;10.60;26.78;101378.38;1707004;83;21170;-64
2021/03/07 10:36:12;;;;;;;108.52;38.40;;;;;;;10.78;27.36;101372.29;1714265;82;21196;-54
2021/03/07 10:38:43;;;;;;;29.15;12.37;;;;;;;10.88;26.93;101365.28;1715945;83;21143;-57
2021/03/07 10:41:27;;;;;;;9.43;4.60;;;;;;;11.01;27.12;101354.77;1726337;83;21156;-56
2021/03/07 10:43:56;;;;;;;10.00;4.05;;;;;;;11.05;26.39;101348.19;1713905;82;21130;-56
2021/03/07 10:46:31;;;;;;;7.00;4.10;;;;;;;11.22;26.83;101365.33;1696704;83;21139;-56
2021/03/07 10:49:03;;;;;;;6.67;4.03;;;;;;;10.81;26.81;101342.88;1692716;84;21167;-56
2021/03/07 10:51:31;;;;;;;;;;;;;;;10.64;26.93;101348.53;1726041;82;21171;-64
2021/03/07 10:53:59;;;;;;;6.62;3.40;;;;;;;10.79;26.68;101346.40;1685024;84;20158;-64
2021/03/07 10:56:40;;;;;;;6.12;3.70;;;;;;;10.85;26.33;101332.80;1695591;84;21590;-64
2021/03/07 10:59:09;;;;;;;6.65;3.35;;;;;;;10.81;26.99;101328.84;1756241;81;21156;-64
2021/03/07 11:01:40;;;;;;;13.80;5.28;;;;;;;10.92;27.19;101321.81;1747603;80;21147;-65
2021/03/07 11:04:09;;;;;;;9.83;5.47;;;;;;;11.14;27.34;101324.03;1756085;82;21119;-65
2021/03/07 11:06:36;;;;;;;7.53;4.37;;;;;;;11.47;27.03;101317.44;1756214;80;21180;-64
2021/03/07 11:09:06;;;;;;;12.40;7.25;;;;;;;11.64;26.74;101308.19;1756035;82;21147;-65
2021/03/07 11:11:34;;;;;;;7.08;3.92;;;;;;;11.85;25.92;101294.08;1738824;82;21598;-65
2021/03/07 11:14:02;;;;;;;6.28;3.75;;;;;;;11.95;26.04;101297.55;1747936;82;21127;-65
2021/03/07 11:19:08;;;;;;;7.70;5.17;;;;;;;11.93;25.07;101291.40;1824360;77;22161;-62
2021/03/07 11:21:36;;;;;;;4.75;3.00;;;;;;;11.89;25.27;101283.09;1769338;80;21591;-62
2021/03/07 11:24:05;;;;;;;5.67;3.55;;;;;;;11.89;25.00;101272.08;1762030;81;21191;-62
2021/03/07 11:26:34;;;;;;;8.53;3.45;;;;;;;11.95;25.11;101268.98;1761932;81;21195;-62
2021/03/07 11:29:02;;;;;;;8.28;3.42;;;;;;;12.01;25.10;101264.59;1768979;80;21158;-62
2021/03/07 11:31:30;;;;;;;5.62;3.10;;;;;;;12.05;24.79;101261.05;1753482;81;21143;-62
2021/03/07 11:33:59;;;;;;;6.10;3.20;;;;;;;12.08;24.29;101265.45;1753465;82;21645;-61
2021/03/07 11:36:28;;;;;;;5.58;3.12;;;;;;;12.12;24.76;101257.97;1769123;80;21154;-63
2021/03/07 11:38:57;;;;;;;7.67;3.33;;;;;;;12.24;24.51;101245.14;1775411;80;21142;-64
2021/03/07 11:41:24;;;;;;;4.75;3.05;;;;;;;11.89;24.08;101244.84;1761780;81;21195;-63
2021/03/07 11:43:52;;;;;;;5.72;3.05;;;;;;;11.87;24.41;101236.91;1761784;81;21617;-64